Pagina principale
METAR-TAF:

METAR-TAF

Aeroporti :

Zaqatala, Azerbaigian

latitudine: 41-33-44N, longitudine: 46-40-02E, altezza: 330 m

Osservazione

Il bollettino è stato emesso 1 ora e 9 minuti fa, alle 17:00 UTC
Vento 6 kt da sud/sud-est
Temperature 10°C
Umidità 57%
Pressione 1012 hPa
Visibilità 10 km o più
Nubi sparse ad un'altezza di 10000 ft

METAR: UBBY 241700Z 15006KT 9999 SCT100 10/02 Q1012 R33/////// NOSIG RMK MT OP

Ora: 22:09 (18:09 UTC)

Previsione

Il bollettino è stato emesso 1 ora e 9 minuti fa, alle 17:00 UTC
Previsione valida dal 24 alle 18 UTC al 25 alle 03 UTC
Vento 4 kt da direzioni variabili
Visibilità 10 km o più
Poco nuvoloso ad un'altezza di 4000 ft
Nubi sparse ad un'altezza di 10000 ft
Temporaneamente
dal 24 alle 18 UTC al 24 alle 23 UTC
Vento 8 kt da est

TAF: UBBY 241700Z 2418/2503 VRB04KT 9999 FEW040 SCT100 TEMPO 2418/2423 10008KT

Osservazioni e previsioni meteorologiche di più di 4000 aeroporti (messaggi METAR e TAF).

Le stazioni disponibili sono rappresentate dai dischi gialli e rossi sulla carta.

Puntare il mouse per vedere il nome della stazione.

Clicca sopra per visualizzare le osservazioni e previsioni meteorologiche.

Per cambiare la mappa : fare clic sui pulsanti verdi con una croce nera per ingrandire, il pulsante verde con un trattino per diminuire, o sulla freccia verde per le mappe adiacenti.


METAR-TAF: